Time;durP1;ratioP1;P1;durP2;ratioP2;P2;SDS_P1;SDS_P2;PMS_P1;PMS_P2;Temp;Humidity;BMP_temperature;BMP_pressure;BME280_temperature;BME280_humidity;BME280_pressure;Samples;Min_cycle;Max_cycle;Signal;HPM_P1;HPM_P2
2021/11/05 00:01:49;;;;;;;38.95;28.15;;;;;;;12.83;100.00;101820.02;1722294;83;21602;-84
2021/11/05 00:04:16;;;;;;;42.38;28.07;;;;;;;12.85;100.00;101822.53;1722284;82;21519;-84
2021/11/05 00:06:43;;;;;;;43.63;29.85;;;;;;;12.84;100.00;101817.78;1722324;82;21322;-84
2021/11/05 00:09:12;;;;;;;42.10;29.80;;;;;;;12.83;100.00;101816.55;1722554;82;21015;-86
2021/11/05 00:11:39;;;;;;;47.03;29.35;;;;;;;12.83;100.00;101809.57;1703941;82;21062;-83
2021/11/05 00:14:06;;;;;;;38.05;27.25;;;;;;;12.82;100.00;101818.83;1699807;84;21019;-83
2021/11/05 00:16:33;;;;;;;41.48;28.27;;;;;;;12.88;100.00;101814.50;1700056;84;22627;-86
2021/11/05 00:19:00;;;;;;;45.20;29.92;;;;;;;12.91;100.00;101816.44;1677863;84;20980;-85
2021/11/05 00:21:27;;;;;;;41.60;28.55;;;;;;;12.92;100.00;101815.95;1699901;84;21134;-84
2021/11/05 00:23:55;;;;;;;43.75;29.07;;;;;;;12.92;100.00;101822.04;1700021;84;21154;-87
2021/11/05 00:26:22;;;;;;;42.85;29.05;;;;;;;12.90;100.00;101826.97;1725583;82;21006;-88
2021/11/05 00:28:49;;;;;;;44.63;27.90;;;;;;;12.91;100.00;101824.28;1748797;82;20990;-84
2021/11/05 00:31:17;;;;;;;41.77;27.17;;;;;;;12.93;100.00;101823.72;1718697;82;21074;-84
2021/11/05 00:33:44;;;;;;;41.68;27.70;;;;;;;12.94;100.00;101821.45;1748315;82;21204;-84
2021/11/05 00:36:14;;;;;;;43.87;28.65;;;;;;;12.96;100.00;101821.81;1748661;82;21085;-85
2021/11/05 00:38:46;;;;;;;42.10;28.20;;;;;;;12.96;100.00;101827.05;1718944;82;21345;-85
2021/11/05 00:41:15;;;;;;;42.75;28.80;;;;;;;12.94;100.00;101820.63;1749000;82;22013;-87
2021/11/05 00:43:43;;;;;;;40.55;28.12;;;;;;;12.93;100.00;101817.18;1748574;82;21026;-88
2021/11/05 00:46:12;;;;;;;37.48;28.05;;;;;;;12.93;100.00;101813.72;1749106;82;21775;-87
2021/11/05 00:48:40;;;;;;;40.73;27.93;;;;;;;12.93;100.00;101816.33;1718415;82;21041;-85
2021/11/05 00:51:08;;;;;;;40.03;28.77;;;;;;;12.92;100.00;101802.43;1748359;82;21057;-86
2021/11/05 00:53:36;;;;;;;37.17;27.05;;;;;;;12.91;100.00;101808.59;1718639;82;21117;-84
2021/11/05 00:56:03;;;;;;;40.95;29.12;;;;;;;12.91;100.00;101816.89;1718743;82;21551;-85
2021/11/05 00:58:30;;;;;;;37.85;26.37;;;;;;;12.90;100.00;101814.76;1747591;82;21781;-83
2021/11/05 01:00:58;;;;;;;37.13;26.42;;;;;;;12.92;100.00;101805.50;1712936;82;21030;-84
2021/11/05 01:03:25;;;;;;;39.70;28.55;;;;;;;12.91;100.00;101812.52;1712981;82;21093;-84
2021/11/05 01:05:53;;;;;;;39.25;27.42;;;;;;;12.91;100.00;101807.28;1742353;82;21015;-85
2021/11/05 01:08:20;;;;;;;38.33;28.15;;;;;;;12.92;100.00;101802.43;1713096;82;21090;-84
2021/11/05 01:10:49;;;;;;;43.55;29.80;;;;;;;12.92;100.00;101806.35;1742548;81;21172;-83
2021/11/05 01:13:16;;;;;;;39.30;27.42;;;;;;;12.92;100.00;101806.80;1742261;82;21038;-84
2021/11/05 01:15:45;;;;;;;38.30;28.12;;;;;;;12.92;100.00;101813.34;1742415;81;21011;-86
2021/11/05 01:18:12;;;;;;;37.73;27.58;;;;;;;12.92;100.00;101808.97;1713669;82;21011;-87
2021/11/05 01:20:40;;;;;;;37.25;27.82;;;;;;;12.90;100.00;101801.69;1742364;81;21019;-83
2021/11/05 01:23:07;;;;;;;35.35;26.93;;;;;;;12.89;100.00;101799.19;1738118;82;21132;-84
2021/11/05 01:25:35;;;;;;;37.10;27.58;;;;;;;12.91;100.00;101804.67;1799383;79;21066;-84
2021/11/05 01:28:04;;;;;;;42.75;29.55;;;;;;;12.91;100.00;101795.52;1715621;83;21456;-85
2021/11/05 01:30:31;;;;;;;37.55;27.30;;;;;;;12.91;100.00;101805.12;1715779;83;21049;-85
2021/11/05 01:33:06;;;;;;;38.40;27.85;;;;;;;12.92;100.00;101801.12;1717598;82;21035;-85
2021/11/05 01:35:28;;;;;;;37.80;27.52;;;;;;;12.93;100.00;101809.79;1714295;83;21165;-84
2021/11/05 01:37:55;;;;;;;34.85;26.33;;;;;;;12.91;100.00;101807.28;1714261;83;21054;-85
2021/11/05 01:40:22;;;;;;;39.48;28.12;;;;;;;12.92;100.00;101805.50;1714310;83;21976;-85
2021/11/05 01:42:50;;;;;;;40.85;28.83;;;;;;;12.93;100.00;101804.11;1719055;82;22070;-86
2021/11/05 01:45:19;;;;;;;41.65;28.57;;;;;;;12.94;100.00;101804.45;1745704;82;21034;-88
2021/11/05 01:47:46;;;;;;;38.92;28.05;;;;;;;12.93;100.00;101802.80;1715790;82;21150;-87
2021/11/05 01:50:14;;;;;;;39.65;28.87;;;;;;;12.96;100.00;101796.98;1723885;82;21800;-87
2021/11/05 01:52:42;;;;;;;36.68;27.32;;;;;;;12.96;100.00;101803.06;1715676;83;20952;-85
2021/11/05 01:55:11;;;;;;;36.93;27.77;;;;;;;12.94;100.00;101801.02;1716861;81;21590;-84
2021/11/05 01:57:39;;;;;;;34.40;26.95;;;;;;;12.94;100.00;101797.91;1704881;82;21078;-85
2021/11/05 02:00:09;;;;;;;37.38;26.62;;;;;;;12.92;100.00;101788.05;1687027;85;21220;-84
2021/11/05 02:02:39;;;;;;;37.63;27.60;;;;;;;12.91;100.00;101786.83;1685257;85;21050;-84
2021/11/05 02:05:08;;;;;;;36.50;26.57;;;;;;;12.88;100.00;101781.34;1686878;84;21053;-84
2021/11/05 02:07:37;;;;;;;38.53;26.97;;;;;;;12.86;100.00;101779.29;1685256;84;21546;-85
2021/11/05 02:10:07;;;;;;;33.33;26.35;;;;;;;12.85;100.00;101771.11;1686944;84;21117;-83
2021/11/05 02:12:36;;;;;;;40.43;28.62;;;;;;;12.85;100.00;101771.11;1685412;85;21163;-87
2021/11/05 02:15:05;;;;;;;34.25;26.82;;;;;;;12.85;100.00;101772.86;1703733;83;22010;-84
2021/11/05 02:17:34;;;;;;;36.48;28.45;;;;;;;12.85;100.00;101771.11;1715627;83;21132;-85
2021/11/05 02:20:05;;;;;;;31.60;24.90;;;;;;;12.86;100.00;101773.23;1715494;83;21086;-85
2021/11/05 02:22:32;;;;;;;37.48;27.17;;;;;;;12.87;100.00;101771.81;1654138;85;21093;-87
2021/11/05 02:24:59;;;;;;;36.35;27.42;;;;;;;12.90;100.00;101782.08;1715080;83;21902;-84
2021/11/05 02:27:31;;;;;;;34.53;27.42;;;;;;;12.91;100.00;101786.37;1713066;83;21036;-85
2021/11/05 02:30:01;;;;;;;40.52;30.15;;;;;;;12.92;100.00;101782.83;1681185;83;21117;-85
2021/11/05 02:32:28;;;;;;;36.98;28.42;;;;;;;12.96;100.00;101782.60;1712780;83;21030;-87
2021/11/05 02:34:55;;;;;;;34.58;26.93;;;;;;;12.98;100.00;101788.09;1684445;83;21507;-85
2021/11/05 02:37:26;;;;;;;37.55;28.47;;;;;;;12.99;100.00;101792.38;1684468;83;21173;-84
2021/11/05 02:39:54;;;;;;;37.93;28.27;;;;;;;13.03;100.00;101784.72;1684482;83;21521;-87
2021/11/05 02:42:21;;;;;;;38.60;30.17;;;;;;;13.05;100.00;101789.84;1712836;83;21041;-84
2021/11/05 02:44:49;;;;;;;39.50;30.02;;;;;;;13.09;100.00;101784.30;1714858;82;21085;-87
2021/11/05 02:47:26;;;;;;;33.05;26.77;;;;;;;13.12;100.00;101777.20;1684494;83;21026;-87
2021/11/05 02:49:58;;;;;;;36.17;28.87;;;;;;;13.15;100.00;101775.20;1720871;81;21112;-85
2021/11/05 02:52:25;;;;;;;36.73;28.60;;;;;;;13.17;100.00;101779.02;1679092;83;21065;-85
2021/11/05 02:54:52;;;;;;;38.35;30.00;;;;;;;13.17;100.00;101780.33;1674320;84;21045;-85
2021/11/05 02:57:19;;;;;;;39.95;28.92;;;;;;;13.17;100.00;101773.33;1674920;84;20971;-86
2021/11/05 02:59:47;;;;;;;40.00;31.15;;;;;;;13.19;100.00;101774.05;1673796;84;21057;-85
2021/11/05 03:02:14;;;;;;;36.70;28.55;;;;;;;13.23;100.00;101770.75;1673997;84;21070;-85
2021/11/05 03:04:41;;;;;;;43.28;32.23;;;;;;;13.21;100.00;101756.48;1713597;82;21042;-84
2021/11/05 03:07:10;;;;;;;37.70;29.07;;;;;;;13.21;100.00;101762.19;1701990;82;21102;-86
2021/11/05 03:09:40;;;;;;;38.00;29.82;;;;;;;13.22;100.00;101760.77;1702313;84;21988;-83
2021/11/05 03:12:11;;;;;;;40.00;29.77;;;;;;;13.23;100.00;101768.13;1690784;84;21064;-87
2021/11/05 03:14:39;;;;;;;39.33;30.10;;;;;;;13.24;100.00;101765.89;1713497;82;21154;-85
2021/11/05 03:17:07;;;;;;;39.18;31.12;;;;;;;13.26;100.00;101773.99;1700352;83;20999;-85
2021/11/05 03:19:35;;;;;;;39.88;30.17;;;;;;;13.26;100.00;101777.91;1747714;82;21125;-86
2021/11/05 03:22:05;;;;;;;45.63;30.80;;;;;;;13.28;100.00;101770.44;1747884;82;21149;-85
2021/11/05 03:24:32;;;;;;;39.10;29.35;;;;;;;13.30;100.00;101765.46;1730159;81;21038;-85
2021/11/05 03:26:59;;;;;;;38.23;29.02;;;;;;;13.34;100.00;101765.63;1690514;83;21142;-84
2021/11/05 03:29:27;;;;;;;39.30;30.00;;;;;;;13.33;100.00;101767.06;1674978;84;21486;-84
2021/11/05 03:31:55;;;;;;;43.90;31.00;;;;;;;13.34;100.00;101763.50;1693185;84;21611;-82
2021/11/05 03:34:23;;;;;;;37.88;28.73;;;;;;;13.35;100.00;101765.15;1692929;84;21130;-83
2021/11/05 03:36:50;;;;;;;36.60;28.60;;;;;;;13.38;100.00;101756.65;1693132;84;21778;-83
2021/11/05 03:39:17;;;;;;;39.88;29.75;;;;;;;13.39;100.00;101747.03;1692772;84;21203;-84
2021/11/05 03:41:45;;;;;;;38.30;28.62;;;;;;;13.42;100.00;101750.73;1693154;84;21508;-82
2021/11/05 03:44:13;;;;;;;38.53;30.62;;;;;;;13.46;100.00;101755.31;1692789;84;21002;-86
2021/11/05 03:46:40;;;;;;;39.30;28.57;;;;;;;13.48;100.00;101751.64;1703475;83;20999;-86
2021/11/05 03:49:08;;;;;;;41.37;31.10;;;;;;;13.47;100.00;101749.11;1723300;82;21598;-83
2021/11/05 03:51:35;;;;;;;41.37;31.12;;;;;;;13.45;100.00;101749.22;1753653;81;21121;-84
2021/11/05 03:54:02;;;;;;;41.70;31.48;;;;;;;13.44;100.00;101748.86;1723545;82;21054;-84
2021/11/05 03:56:30;;;;;;;41.85;30.50;;;;;;;13.44;100.00;101748.03;1753822;81;21017;-83
2021/11/05 03:58:58;;;;;;;40.67;30.12;;;;;;;13.45;100.00;101752.33;1723345;83;21101;-86
2021/11/05 04:01:25;;;;;;;42.15;30.50;;;;;;;13.45;100.00;101743.98;1753461;81;21598;-86
2021/11/05 04:03:53;;;;;;;40.55;30.08;;;;;;;13.46;100.00;101744.84;1723674;82;22888;-85
2021/11/05 04:06:22;;;;;;;37.98;28.17;;;;;;;13.49;100.00;101749.39;1730098;81;21088;-88
2021/11/05 04:08:49;;;;;;;40.88;29.02;;;;;;;13.52;100.00;101750.95;1721992;83;21082;-86
2021/11/05 04:11:18;;;;;;;42.30;29.40;;;;;;;13.53;100.00;101745.60;1724005;83;21512;-86
2021/11/05 04:13:45;;;;;;;56.88;29.87;;;;;;;13.55;100.00;101755.50;1753413;81;21085;-86
2021/11/05 04:16:14;;;;;;;54.65;29.30;;;;;;;13.58;100.00;101752.31;1723586;83;21156;-85
2021/11/05 04:18:41;;;;;;;39.10;25.97;;;;;;;13.59;100.00;101753.95;1750000;81;21006;-86
2021/11/05 04:21:09;;;;;;;41.02;27.62;;;;;;;13.58;100.00;101752.31;1676739;83;21081;-87
2021/11/05 04:23:36;;;;;;;44.18;26.93;;;;;;;13.58;100.00;101749.69;1704603;83;21007;-84
2021/11/05 04:26:04;;;;;;;42.08;28.32;;;;;;;13.53;100.00;101753.45;1711388;82;21614;-86
2021/11/05 04:28:33;;;;;;;50.73;28.80;;;;;;;13.52;100.00;101755.70;1694249;84;21156;-86
2021/11/05 04:31:02;;;;;;;35.45;26.17;;;;;;;13.53;100.00;101761.30;1723369;82;21054;-86
2021/11/05 04:33:32;;;;;;;35.78;27.58;;;;;;;13.55;100.00;101759.88;1694216;84;21093;-85
2021/11/05 04:36:01;;;;;;;33.95;25.52;;;;;;;13.54;100.00;101772.63;1705087;81;21120;-91
2021/11/05 04:38:30;;;;;;;35.28;26.62;;;;;;;13.53;100.00;101774.88;1717643;83;21073;-89
2021/11/05 04:40:57;;;;;;;38.75;27.48;;;;;;;13.51;100.00;101774.13;1719431;82;21151;-89
2021/11/05 04:43:26;;;;;;;37.80;26.95;;;;;;;13.52;100.00;101775.33;1720296;82;21529;-86
2021/11/05 04:45:53;;;;;;;40.55;28.55;;;;;;;13.54;100.00;101764.29;1702999;82;21104;-89
2021/11/05 04:48:20;;;;;;;35.55;28.80;;;;;;;13.55;100.00;101765.97;1744885;81;21097;-88
2021/11/05 04:50:48;;;;;;;37.53;27.10;;;;;;;13.57;100.00;101772.39;1733294;82;21202;-89
2021/11/05 04:53:15;;;;;;;38.92;26.75;;;;;;;13.53;100.00;101771.77;1731199;82;21137;-89
2021/11/05 04:55:42;;;;;;;40.17;26.50;;;;;;;13.52;100.00;101773.19;1724719;82;21030;-88
2021/11/05 04:58:09;;;;;;;37.93;27.05;;;;;;;13.48;100.00;101776.50;1729117;82;21703;-88
2021/11/05 05:00:36;;;;;;;33.90;26.00;;;;;;;13.48;100.00;101777.80;1699472;83;21571;-88
2021/11/05 05:03:04;;;;;;;39.13;25.75;;;;;;;13.45;100.00;101778.00;1709762;83;21128;-88
2021/11/05 05:05:32;;;;;;;36.08;27.42;;;;;;;13.44;100.00;101780.25;1699274;82;22006;-86
2021/11/05 05:07:59;;;;;;;41.33;27.87;;;;;;;13.45;100.00;101781.92;1752566;81;21034;-85
2021/11/05 05:10:27;;;;;;;40.30;28.65;;;;;;;13.48;100.00;101779.11;1754007;81;21066;-84
2021/11/05 05:12:58;;;;;;;39.27;28.00;;;;;;;13.54;100.00;101788.33;1741454;80;21084;-84
2021/11/05 05:15:26;;;;;;;;;;;;;;;13.53;100.00;101791.39;1726397;80;21010;-86
2021/11/05 05:17:53;;;;;;;36.68;26.82;;;;;;;13.52;100.00;101790.20;1707566;81;21060;-85
2021/11/05 05:20:22;;;;;;;41.28;28.73;;;;;;;13.48;100.00;101788.72;1722773;83;21034;-88
2021/11/05 05:22:49;;;;;;;37.17;26.45;;;;;;;13.46;100.00;101787.53;1724543;81;21041;-87
2021/11/05 05:25:18;;;;;;;37.20;28.90;;;;;;;13.45;100.00;101787.64;1713592;81;21018;-87
2021/11/05 05:27:48;;;;;;;36.20;27.52;;;;;;;13.43;100.00;101783.80;1718905;82;21024;-86
2021/11/05 05:30:16;;;;;;;33.95;27.25;;;;;;;13.41;100.00;101781.79;1715648;82;21527;-85
2021/11/05 05:32:46;;;;;;;35.33;26.42;;;;;;;13.40;100.00;101787.95;1715739;83;20947;-85
2021/11/05 05:35:14;;;;;;;39.48;28.73;;;;;;;13.40;100.00;101789.27;1745650;82;21506;-84
2021/11/05 05:37:42;;;;;;;34.67;26.77;;;;;;;13.39;100.00;101786.28;1714509;83;21038;-87
2021/11/05 05:40:11;;;;;;;36.08;27.45;;;;;;;13.38;100.00;101779.34;1701339;82;21125;-88
2021/11/05 05:42:39;;;;;;;37.88;28.27;;;;;;;13.38;100.00;101785.42;1705551;83;21157;-85
2021/11/05 05:45:08;;;;;;;35.35;26.57;;;;;;;13.37;100.00;101790.74;1687024;84;21567;-88
2021/11/05 05:47:36;;;;;;;37.13;27.73;;;;;;;13.35;100.00;101792.16;1687243;85;21101;-86
2021/11/05 05:50:07;;;;;;;34.67;26.73;;;;;;;13.35;100.00;101797.39;1710681;82;21553;-88
2021/11/05 05:52:34;;;;;;;40.88;27.55;;;;;;;13.35;100.00;101798.70;1712600;83;21594;-87
2021/11/05 05:55:01;;;;;;;36.15;27.07;;;;;;;13.35;100.00;101792.16;1745217;82;21135;-86
2021/11/05 05:57:28;;;;;;;35.35;27.15;;;;;;;13.37;100.00;101799.44;1715486;83;21065;-85
2021/11/05 05:59:56;;;;;;;32.80;25.52;;;;;;;13.38;100.00;101798.95;1739244;81;21541;-84
2021/11/05 06:02:23;;;;;;;36.63;28.92;;;;;;;13.41;100.00;101805.33;1709841;82;21128;-84
2021/11/05 06:04:50;;;;;;;36.85;26.65;;;;;;;13.43;100.00;101809.97;1686874;85;21516;-86
2021/11/05 06:07:17;;;;;;;39.58;27.45;;;;;;;13.45;100.00;101809.40;1665790;85;21069;-84
2021/11/05 06:09:45;;;;;;;36.40;28.32;;;;;;;13.46;100.00;101807.64;1690305;84;21661;-87
2021/11/05 06:12:13;;;;;;;33.67;26.90;;;;;;;13.46;100.00;101808.46;1691180;82;21032;-86
2021/11/05 06:14:42;;;;;;;36.23;27.58;;;;;;;13.48;100.00;101804.42;1726462;82;21011;-86
2021/11/05 06:17:10;;;;;;;38.38;29.18;;;;;;;13.48;100.00;101805.73;1690974;82;21544;-86
2021/11/05 06:19:37;;;;;;;37.78;27.82;;;;;;;13.49;100.00;101814.80;1698061;83;21103;-86
2021/11/05 06:22:05;;;;;;;34.60;26.55;;;;;;;13.50;100.00;101811.70;1695209;82;21569;-85
2021/11/05 06:24:32;;;;;;;34.33;26.42;;;;;;;13.51;100.00;101817.30;1662908;84;21010;-87
2021/11/05 06:26:59;;;;;;;35.83;26.45;;;;;;;13.51;100.00;101810.28;1698034;82;21117;-87
2021/11/05 06:29:26;;;;;;;37.67;28.83;;;;;;;13.52;100.00;101815.88;1731431;82;21599;-84
2021/11/05 06:31:54;;;;;;;39.63;28.70;;;;;;;13.54;100.00;101813.19;1731577;82;21551;-84
2021/11/05 06:34:21;;;;;;;37.38;27.67;;;;;;;13.55;100.00;101805.22;1731346;82;21052;-86
2021/11/05 06:36:48;;;;;;;36.30;26.87;;;;;;;13.55;100.00;101806.52;1731729;82;21042;-86
2021/11/05 06:39:17;;;;;;;38.67;28.83;;;;;;;13.57;100.00;101802.48;1731670;82;21090;-88
2021/11/05 06:41:44;;;;;;;39.90;29.18;;;;;;;13.60;100.00;101803.59;1731456;82;21720;-87
2021/11/05 06:44:11;;;;;;;38.25;29.20;;;;;;;13.63;100.00;101801.23;1728590;81;21156;-88
2021/11/05 06:46:39;;;;;;;37.35;28.30;;;;;;;13.64;100.00;101805.52;1761878;81;21656;-86
2021/11/05 06:49:06;;;;;;;37.20;28.60;;;;;;;13.65;100.00;101809.34;1762093;80;21120;-87
2021/11/05 06:51:33;;;;;;;39.92;29.60;;;;;;;13.67;100.00;101807.91;1810812;78;21347;-86
2021/11/05 06:54:00;;;;;;;38.00;28.70;;;;;;;13.67;100.00;101806.15;1810480;79;21013;-89
2021/11/05 06:56:28;;;;;;;41.15;29.75;;;;;;;13.69;100.00;101802.96;1806442;79;21139;-87
2021/11/05 06:58:56;;;;;;;38.13;27.87;;;;;;;13.69;100.00;101797.72;1800115;79;21644;-90
2021/11/05 07:01:24;;;;;;;38.90;28.05;;;;;;;13.71;100.00;101798.92;1786033;79;21047;-90
2021/11/05 07:03:54;;;;;;;39.25;28.60;;;;;;;13.73;100.00;101793.94;1751519;79;21033;-87
2021/11/05 07:06:23;;;;;;;35.40;27.95;;;;;;;13.75;100.00;101799.54;1776681;80;21058;-86
2021/11/05 07:08:51;;;;;;;34.18;26.82;;;;;;;13.77;100.00;101806.82;1776766;80;21094;-86
2021/11/05 07:11:18;;;;;;;35.52;27.85;;;;;;;13.79;100.00;101796.61;1776891;80;21844;-87
2021/11/05 07:13:45;;;;;;;36.70;28.95;;;;;;;13.82;100.00;101805.53;1777187;80;21003;-85
2021/11/05 07:16:12;;;;;;;37.40;29.02;;;;;;;13.85;100.00;101806.64;1776265;80;21026;-87
2021/11/05 07:18:40;;;;;;;37.75;28.30;;;;;;;13.88;100.00;101808.20;1777168;80;21081;-86
2021/11/05 07:21:08;;;;;;;35.43;28.10;;;;;;;13.93;100.00;101803.95;1777066;80;21801;-86
2021/11/05 07:23:35;;;;;;;34.88;27.98;;;;;;;13.96;100.00;101801.12;1777093;80;21654;-87
2021/11/05 07:26:03;;;;;;;35.60;26.85;;;;;;;13.96;100.00;101800.64;1776860;80;21054;-86
2021/11/05 07:28:31;;;;;;;35.73;28.38;;;;;;;13.97;100.00;101801.49;1784605;79;20999;-86
2021/11/05 07:30:58;;;;;;;33.30;27.37;;;;;;;14.00;100.00;101796.88;1737440;81;21089;-86
2021/11/05 07:33:25;;;;;;;34.00;28.17;;;;;;;14.01;100.00;101799.01;1729392;82;21087;-85
2021/11/05 07:35:53;;;;;;;36.50;28.40;;;;;;;14.02;100.00;101804.13;1707365;84;21046;-86
2021/11/05 07:38:21;;;;;;;34.00;26.73;;;;;;;14.06;100.00;101801.30;1708751;82;21063;-86
2021/11/05 07:40:48;;;;;;;34.03;27.58;;;;;;;14.10;100.00;101801.46;1722683;82;21011;-86
2021/11/05 07:43:15;;;;;;;33.35;26.93;;;;;;;14.13;100.00;101803.39;1729446;82;21532;-86
2021/11/05 07:45:42;;;;;;;33.75;28.23;;;;;;;14.17;100.00;101807.45;1737536;82;21968;-86
2021/11/05 07:48:09;;;;;;;32.70;26.68;;;;;;;14.20;100.00;101815.09;1729580;82;21533;-86
2021/11/05 07:50:37;;;;;;;33.20;27.48;;;;;;;14.25;100.00;101812.15;1737661;82;21561;-85
2021/11/05 07:53:05;;;;;;;37.23;27.17;;;;;;;14.30;100.00;101814.44;1729730;82;21046;-87
2021/11/05 07:55:34;;;;;;;33.25;27.45;;;;;;;14.35;100.00;101817.55;1729675;82;21011;-86
2021/11/05 07:58:01;;;;;;;36.38;28.65;;;;;;;14.40;100.00;101819.84;1729893;83;21163;-85
2021/11/05 08:00:29;;;;;;;34.50;26.82;;;;;;;14.43;100.00;101816.53;1737657;82;21437;-87
2021/11/05 08:02:56;;;;;;;35.52;27.30;;;;;;;14.48;100.00;101820.95;1729671;82;21659;-87
2021/11/05 08:05:23;;;;;;;31.30;25.25;;;;;;;14.55;100.00;101812.63;1737805;81;21038;-87
2021/11/05 08:07:50;;;;;;;43.58;30.75;;;;;;;14.62;100.00;101817.81;1729518;82;21027;-87
2021/11/05 08:10:20;;;;;;;38.67;29.15;;;;;;;14.67;100.00;101816.53;1729740;82;21854;-89
2021/11/05 08:12:51;;;;;;;39.00;28.95;;;;;;;14.70;100.00;101822.05;1735693;82;21014;-87
2021/11/05 08:15:20;;;;;;;34.75;27.98;;;;;;;14.73;100.00;101817.88;1725357;82;21102;-85
2021/11/05 08:17:48;;;;;;;41.33;29.63;;;;;;;14.78;100.00;101817.54;1737398;82;21121;-87
2021/11/05 08:20:17;;;;;;;37.08;29.27;;;;;;;14.82;100.00;101815.89;1700557;83;21044;-86
2021/11/05 08:22:46;;;;;;;37.85;28.67;;;;;;;14.85;100.00;101819.24;1678185;82;21109;-88
2021/11/05 08:25:16;;;;;;;34.30;27.42;;;;;;;14.89;100.00;101823.30;1693375;83;21166;-86
2021/11/05 08:27:43;;;;;;;34.37;28.40;;;;;;;14.96;100.00;101819.27;1738948;81;21113;-87
2021/11/05 08:33:55;;;;;;;36.08;28.98;;;;;;;15.06;100.00;101820.25;1707857;84;21106;-87
2021/11/05 08:36:41;;;;;;;36.08;27.52;;;;;;;15.09;100.00;101814.78;1698083;83;21159;-85
2021/11/05 08:39:36;;;;;;;31.85;26.07;;;;;;;15.14;100.00;101817.89;1706883;82;21100;-85
2021/11/05 08:42:05;;;;;;;32.93;26.35;;;;;;;15.16;100.00;101820.38;1702750;83;21542;-84
2021/11/05 08:44:33;;;;;;;33.83;27.10;;;;;;;15.16;100.00;101815.63;1717600;82;21047;-86
2021/11/05 08:47:01;;;;;;;36.30;27.98;;;;;;;15.16;100.00;101813.00;1691808;82;21096;-85
2021/11/05 08:49:29;;;;;;;34.98;27.00;;;;;;;15.16;100.00;101813.00;1736827;81;21182;-88
2021/11/05 08:51:58;;;;;;;34.88;27.93;;;;;;;15.19;100.00;101812.75;1712084;82;21567;-87
2021/11/05 08:54:26;;;;;;;31.85;26.60;;;;;;;15.24;100.00;101810.63;1699716;82;21456;-88
2021/11/05 08:56:53;;;;;;;29.12;25.17;;;;;;;15.30;100.00;101811.47;1689297;83;21696;-86
2021/11/05 08:59:24;;;;;;;33.05;27.15;;;;;;;15.34;100.00;101811.61;1685581;82;21366;-88
2021/11/05 09:01:53;;;;;;;31.48;25.97;;;;;;;15.39;100.00;101806.84;1726875;82;21140;-87
2021/11/05 09:04:20;;;;;;;29.60;24.25;;;;;;;15.46;100.00;101809.34;1728821;82;21588;-87
2021/11/05 09:06:48;;;;;;;32.38;25.50;;;;;;;15.53;100.00;101803.61;1707815;84;21160;-86
2021/11/05 09:09:16;;;;;;;29.70;25.68;;;;;;;15.57;100.00;101805.06;1729071;82;21086;-86
2021/11/05 09:11:46;;;;;;;29.77;24.82;;;;;;;15.60;100.00;101804.34;1729289;82;21027;-87
2021/11/05 09:14:13;;;;;;;28.02;24.63;;;;;;;15.66;100.00;101804.81;1694475;82;21109;-87
2021/11/05 09:16:40;;;;;;;29.35;24.63;;;;;;;15.71;100.00;101797.40;1681277;82;21113;-88
2021/11/05 09:19:08;;;;;;;32.65;25.88;;;;;;;15.76;100.00;101801.34;1694058;83;21110;-87
2021/11/05 09:21:35;;;;;;;31.07;25.70;;;;;;;15.83;100.00;101795.59;1690171;83;21054;-88
2021/11/05 09:24:04;;;;;;;34.18;26.65;;;;;;;15.87;100.00;101795.27;1699924;83;21557;-91
2021/11/05 09:26:32;;;;;;;31.35;27.45;;;;;;;15.94;100.00;101796.94;1700612;82;21156;-89
2021/11/05 09:29:00;;;;;;;33.55;26.35;;;;;;;15.99;100.00;101802.66;1700797;83;21586;-89
2021/11/05 09:31:27;;;;;;;32.75;28.50;;;;;;;16.06;100.00;101794.64;1699890;83;21091;-88
2021/11/05 09:33:58;;;;;;;34.98;28.83;;;;;;;16.14;100.00;101797.98;1678465;84;21119;-88
2021/11/05 09:36:27;;;;;;;31.97;27.47;;;;;;;16.19;100.00;101795.80;1723144;82;21398;-89
2021/11/05 09:38:56;;;;;;;33.95;29.27;;;;;;;16.21;100.00;101795.70;1718715;82;21071;-86
2021/11/05 09:41:23;;;;;;;32.88;28.20;;;;;;;16.21;100.00;101793.08;1700007;83;21070;-89
2021/11/05 09:43:50;;;;;;;35.03;29.23;;;;;;;16.20;100.00;101789.59;1720309;82;21003;-89
2021/11/05 09:46:17;;;;;;;36.42;30.57;;;;;;;16.21;100.00;101789.13;1722584;83;21098;-88
2021/11/05 09:48:45;;;;;;;32.93;28.12;;;;;;;16.20;100.00;101784.34;1717300;82;21726;-85
2021/11/05 09:51:13;;;;;;;35.48;28.75;;;;;;;16.20;100.00;101779.58;1700086;84;21156;-86
2021/11/05 09:53:41;;;;;;;38.50;30.80;;;;;;;16.21;100.00;101772.87;1694551;82;21098;-88
2021/11/05 09:56:14;;;;;;;37.15;29.15;;;;;;;16.21;100.00;101780.75;1702531;82;21058;-89
2021/11/05 09:58:42;;;;;;;32.00;28.25;;;;;;;16.24;100.00;101773.10;1729068;82;21556;-86
2021/11/05 10:01:13;;;;;;;39.80;28.62;;;;;;;16.25;100.00;101773.45;1724460;82;21047;-85
2021/11/05 10:03:40;;;;;;;;;;;;;;;16.27;100.00;101775.49;1726658;82;22009;-86
2021/11/05 10:06:12;;;;;;;35.45;28.25;;;;;;;16.31;100.00;101769.50;1708747;82;20486;-88
2021/11/05 10:08:40;;;;;;;36.38;27.15;;;;;;;16.34;100.00;101771.41;1736836;81;21043;-86
2021/11/05 10:11:25;;;;;;;37.95;27.42;;;;;;;16.40;100.00;101769.58;1723131;81;21029;-89
2021/11/05 10:13:57;;;;;;;39.48;27.62;;;;;;;16.47;100.00;101762.50;1699905;83;21042;-88
2021/11/05 10:16:26;;;;;;;33.23;26.70;;;;;;;16.51;100.00;101765.24;1702114;82;21129;-86
2021/11/05 10:19:06;;;;;;;36.08;27.45;;;;;;;16.53;100.00;101762.84;1700182;83;21098;-87
2021/11/05 10:21:45;;;;;;;32.73;27.37;;;;;;;16.57;100.00;101758.16;1677339;83;21525;-87
2021/11/05 10:24:17;;;;;;;33.02;26.77;;;;;;;16.59;100.00;101753.62;1703623;82;21121;-86
2021/11/05 10:26:49;;;;;;;30.75;24.75;;;;;;;16.60;100.00;101751.34;1716343;82;21082;-85
2021/11/05 10:29:29;;;;;;;30.95;25.48;;;;;;;16.65;100.00;101743.89;1731535;81;21126;-86
2021/11/05 10:32:07;;;;;;;28.38;24.67;;;;;;;16.67;100.00;101747.23;1766541;81;21537;-85
2021/11/05 10:34:53;;;;;;;31.40;26.85;;;;;;;16.75;100.00;101745.77;1736671;81;21079;-86
2021/11/05 10:37:32;;;;;;;30.23;24.35;;;;;;;16.86;100.00;101744.39;1748815;80;21538;-88
2021/11/05 10:40:00;;;;;;;30.17;24.27;;;;;;;16.97;100.00;101739.56;1748567;80;21060;-89
2021/11/05 10:42:34;;;;;;;27.70;24.07;;;;;;;17.06;100.00;101735.31;1721345;82;21785;-87
2021/11/05 10:45:18;;;;;;;25.27;22.60;;;;;;;17.12;100.00;101726.88;1744695;80;21081;-87
2021/11/05 10:48:02;;;;;;;26.35;22.87;;;;;;;17.21;100.00;101730.05;1736332;82;21096;-86
2021/11/05 10:50:53;;;;;;;27.50;23.38;;;;;;;17.35;100.00;101732.31;1716518;82;21488;-84
2021/11/05 10:53:26;;;;;;;28.60;22.13;;;;;;;17.49;100.00;101736.89;1732127;81;21077;-84
2021/11/05 10:56:00;;;;;;;26.50;22.62;;;;;;;17.56;100.00;101735.84;1766947;81;21836;-87
2021/11/05 10:58:38;;;;;;;25.25;21.77;;;;;;;17.57;100.00;101734.42;1766168;81;21034;-88
2021/11/05 11:01:15;;;;;;;30.12;21.48;;;;;;;17.61;100.00;101733.17;1767433;81;21577;-89
2021/11/05 11:03:54;;;;;;;27.48;22.50;;;;;;;17.61;100.00;101733.66;1749402;81;21105;-89
2021/11/05 11:06:30;;;;;;;28.35;22.00;;;;;;;17.60;100.00;101729.36;1751856;81;21041;-90
2021/11/05 11:09:01;;;;;;;27.02;22.22;;;;;;;17.58;100.00;101728.19;1752064;81;21590;-86
2021/11/05 11:11:38;;;;;;;24.98;22.00;;;;;;;17.57;100.00;101731.78;1738786;81;21534;-85
2021/11/05 11:14:10;;;;;;;27.77;21.42;;;;;;;17.54;100.00;101729.91;1734694;81;21065;-85